sensor_id;sensor_type;location;lat;lon;timestamp;P1;durP1;ratioP1;P2;durP2;ratioP2
1699;SDS011;847;48.058;7.810;2023-04-30T00:00:40;8.20;;;6.57;;
1699;SDS011;847;48.058;7.810;2023-04-30T00:03:08;7.53;;;6.73;;
1699;SDS011;847;48.058;7.810;2023-04-30T00:05:34;7.57;;;6.77;;
1699;SDS011;847;48.058;7.810;2023-04-30T00:08:02;8.10;;;7.30;;
1699;SDS011;847;48.058;7.810;2023-04-30T00:10:29;6.83;;;6.13;;
1699;SDS011;847;48.058;7.810;2023-04-30T00:12:56;6.70;;;6.03;;
1699;SDS011;847;48.058;7.810;2023-04-30T00:15:22;7.43;;;6.53;;
1699;SDS011;847;48.058;7.810;2023-04-30T00:17:49;7.00;;;6.30;;
1699;SDS011;847;48.058;7.810;2023-04-30T00:20:18;7.60;;;6.80;;
1699;SDS011;847;48.058;7.810;2023-04-30T00:22:45;7.10;;;5.53;;
1699;SDS011;847;48.058;7.810;2023-04-30T00:25:11;6.97;;;5.90;;
1699;SDS011;847;48.058;7.810;2023-04-30T00:27:38;8.73;;;6.30;;
1699;SDS011;847;48.058;7.810;2023-04-30T00:30:06;7.10;;;6.40;;
1699;SDS011;847;48.058;7.810;2023-04-30T00:32:33;7.53;;;6.43;;
1699;SDS011;847;48.058;7.810;2023-04-30T00:35:00;8.43;;;7.23;;
1699;SDS011;847;48.058;7.810;2023-04-30T00:37:28;7.40;;;6.43;;
1699;SDS011;847;48.058;7.810;2023-04-30T00:39:56;7.47;;;6.67;;
1699;SDS011;847;48.058;7.810;2023-04-30T00:42:22;6.20;;;5.40;;
1699;SDS011;847;48.058;7.810;2023-04-30T00:44:49;6.87;;;6.27;;
1699;SDS011;847;48.058;7.810;2023-04-30T00:47:16;9.03;;;6.23;;
1699;SDS011;847;48.058;7.810;2023-04-30T00:49:43;6.93;;;6.10;;
1699;SDS011;847;48.058;7.810;2023-04-30T00:52:10;10.23;;;6.17;;
1699;SDS011;847;48.058;7.810;2023-04-30T00:54:39;8.17;;;6.73;;
1699;SDS011;847;48.058;7.810;2023-04-30T00:57:06;9.17;;;6.17;;
1699;SDS011;847;48.058;7.810;2023-04-30T00:59:34;7.60;;;6.70;;
1699;SDS011;847;48.058;7.810;2023-04-30T01:02:01;8.40;;;5.93;;
1699;SDS011;847;48.058;7.810;2023-04-30T01:04:28;8.47;;;6.10;;
1699;SDS011;847;48.058;7.810;2023-04-30T01:06:55;7.50;;;6.63;;
1699;SDS011;847;48.058;7.810;2023-04-30T01:09:22;10.30;;;6.83;;
1699;SDS011;847;48.058;7.810;2023-04-30T01:11:55;8.20;;;7.27;;
1699;SDS011;847;48.058;7.810;2023-04-30T01:14:30;7.20;;;6.50;;
1699;SDS011;847;48.058;7.810;2023-04-30T01:17:07;7.83;;;7.03;;
1699;SDS011;847;48.058;7.810;2023-04-30T01:19:41;7.93;;;7.13;;
1699;SDS011;847;48.058;7.810;2023-04-30T01:22:11;7.70;;;6.90;;
1699;SDS011;847;48.058;7.810;2023-04-30T01:24:52;9.53;;;7.10;;
1699;SDS011;847;48.058;7.810;2023-04-30T01:30:25;7.07;;;6.37;;
1699;SDS011;847;48.058;7.810;2023-04-30T01:32:53;7.80;;;6.90;;
1699;SDS011;847;48.058;7.810;2023-04-30T01:35:20;7.77;;;6.97;;
1699;SDS011;847;48.058;7.810;2023-04-30T01:38:09;8.30;;;6.97;;
1699;SDS011;847;48.058;7.810;2023-04-30T01:40:46;10.10;;;7.53;;
1699;SDS011;847;48.058;7.810;2023-04-30T01:43:18;10.13;;;9.03;;
1699;SDS011;847;48.058;7.810;2023-04-30T01:45:57;10.17;;;8.80;;
1699;SDS011;847;48.058;7.810;2023-04-30T01:48:36;9.90;;;8.30;;
1699;SDS011;847;48.058;7.810;2023-04-30T01:51:12;9.77;;;8.77;;
1699;SDS011;847;48.058;7.810;2023-04-30T01:53:44;10.83;;;8.13;;
1699;SDS011;847;48.058;7.810;2023-04-30T01:56:11;11.23;;;8.80;;
1699;SDS011;847;48.058;7.810;2023-04-30T01:58:43;9.47;;;8.30;;
1699;SDS011;847;48.058;7.810;2023-04-30T02:01:25;11.07;;;9.60;;
1699;SDS011;847;48.058;7.810;2023-04-30T02:03:53;11.43;;;8.83;;
1699;SDS011;847;48.058;7.810;2023-04-30T02:06:20;12.47;;;8.87;;
1699;SDS011;847;48.058;7.810;2023-04-30T02:08:46;11.93;;;9.00;;
1699;SDS011;847;48.058;7.810;2023-04-30T02:11:13;11.90;;;9.70;;
1699;SDS011;847;48.058;7.810;2023-04-30T02:13:40;11.47;;;9.97;;
1699;SDS011;847;48.058;7.810;2023-04-30T02:16:07;10.40;;;9.13;;
1699;SDS011;847;48.058;7.810;2023-04-30T02:18:35;10.20;;;9.10;;
1699;SDS011;847;48.058;7.810;2023-04-30T02:21:01;11.53;;;9.40;;
1699;SDS011;847;48.058;7.810;2023-04-30T02:23:28;14.93;;;9.80;;
1699;SDS011;847;48.058;7.810;2023-04-30T02:25:55;17.00;;;11.03;;
1699;SDS011;847;48.058;7.810;2023-04-30T02:28:21;12.83;;;10.53;;
1699;SDS011;847;48.058;7.810;2023-04-30T02:30:48;16.03;;;11.33;;
1699;SDS011;847;48.058;7.810;2023-04-30T02:33:15;14.50;;;12.00;;
1699;SDS011;847;48.058;7.810;2023-04-30T02:35:43;14.57;;;11.27;;
1699;SDS011;847;48.058;7.810;2023-04-30T02:38:11;15.67;;;11.43;;
1699;SDS011;847;48.058;7.810;2023-04-30T02:40:39;15.27;;;12.60;;
1699;SDS011;847;48.058;7.810;2023-04-30T02:43:06;15.57;;;12.70;;
1699;SDS011;847;48.058;7.810;2023-04-30T02:45:33;19.40;;;13.20;;
1699;SDS011;847;48.058;7.810;2023-04-30T02:48:00;15.70;;;12.80;;
1699;SDS011;847;48.058;7.810;2023-04-30T02:50:26;19.10;;;13.50;;
1699;SDS011;847;48.058;7.810;2023-04-30T02:52:55;15.50;;;12.10;;
1699;SDS011;847;48.058;7.810;2023-04-30T02:55:21;15.07;;;12.80;;
1699;SDS011;847;48.058;7.810;2023-04-30T02:57:48;15.10;;;13.07;;
1699;SDS011;847;48.058;7.810;2023-04-30T03:00:15;16.37;;;14.40;;
1699;SDS011;847;48.058;7.810;2023-04-30T03:02:42;19.50;;;14.10;;
1699;SDS011;847;48.058;7.810;2023-04-30T03:05:09;15.40;;;13.37;;
1699;SDS011;847;48.058;7.810;2023-04-30T03:07:36;15.27;;;11.97;;
1699;SDS011;847;48.058;7.810;2023-04-30T03:10:05;14.33;;;12.20;;
1699;SDS011;847;48.058;7.810;2023-04-30T03:12:32;17.03;;;13.77;;
1699;SDS011;847;48.058;7.810;2023-04-30T03:14:59;16.10;;;13.87;;
1699;SDS011;847;48.058;7.810;2023-04-30T03:17:26;16.83;;;13.80;;
1699;SDS011;847;48.058;7.810;2023-04-30T03:19:53;20.13;;;14.80;;
1699;SDS011;847;48.058;7.810;2023-04-30T03:22:19;17.03;;;13.60;;
1699;SDS011;847;48.058;7.810;2023-04-30T03:24:47;16.27;;;13.70;;
1699;SDS011;847;48.058;7.810;2023-04-30T03:27:16;16.13;;;13.40;;
1699;SDS011;847;48.058;7.810;2023-04-30T03:29:42;20.03;;;13.83;;
1699;SDS011;847;48.058;7.810;2023-04-30T03:32:09;18.00;;;14.47;;
1699;SDS011;847;48.058;7.810;2023-04-30T03:34:37;15.93;;;12.07;;
1699;SDS011;847;48.058;7.810;2023-04-30T03:37:03;17.17;;;13.37;;
1699;SDS011;847;48.058;7.810;2023-04-30T03:39:30;15.97;;;13.00;;
1699;SDS011;847;48.058;7.810;2023-04-30T03:41:57;23.03;;;13.87;;
1699;SDS011;847;48.058;7.810;2023-04-30T03:44:25;18.20;;;13.70;;
1699;SDS011;847;48.058;7.810;2023-04-30T03:46:52;19.50;;;14.83;;
1699;SDS011;847;48.058;7.810;2023-04-30T03:49:19;20.13;;;14.30;;
1699;SDS011;847;48.058;7.810;2023-04-30T03:51:45;19.70;;;15.00;;
1699;SDS011;847;48.058;7.810;2023-04-30T03:54:12;22.20;;;14.53;;
1699;SDS011;847;48.058;7.810;2023-04-30T03:56:39;19.67;;;13.80;;
1699;SDS011;847;48.058;7.810;2023-04-30T03:59:06;17.60;;;14.43;;
1699;SDS011;847;48.058;7.810;2023-04-30T04:01:34;16.23;;;13.13;;
1699;SDS011;847;48.058;7.810;2023-04-30T04:04:01;17.87;;;14.27;;
1699;SDS011;847;48.058;7.810;2023-04-30T04:06:28;21.40;;;15.10;;
1699;SDS011;847;48.058;7.810;2023-04-30T04:08:55;17.47;;;14.30;;
1699;SDS011;847;48.058;7.810;2023-04-30T04:11:22;20.43;;;14.27;;
1699;SDS011;847;48.058;7.810;2023-04-30T04:13:49;17.27;;;14.03;;
1699;SDS011;847;48.058;7.810;2023-04-30T04:16:16;18.67;;;14.60;;
1699;SDS011;847;48.058;7.810;2023-04-30T04:18:44;17.43;;;14.10;;
1699;SDS011;847;48.058;7.810;2023-04-30T04:21:10;17.23;;;13.53;;
1699;SDS011;847;48.058;7.810;2023-04-30T04:23:37;16.57;;;13.63;;
1699;SDS011;847;48.058;7.810;2023-04-30T04:26:04;17.73;;;13.77;;
1699;SDS011;847;48.058;7.810;2023-04-30T04:28:31;17.23;;;13.90;;
1699;SDS011;847;48.058;7.810;2023-04-30T04:30:58;18.70;;;14.20;;
1699;SDS011;847;48.058;7.810;2023-04-30T04:33:24;18.90;;;13.87;;
1699;SDS011;847;48.058;7.810;2023-04-30T04:35:53;17.87;;;14.37;;
1699;SDS011;847;48.058;7.810;2023-04-30T04:38:22;23.60;;;15.63;;
1699;SDS011;847;48.058;7.810;2023-04-30T04:40:51;18.23;;;14.30;;
1699;SDS011;847;48.058;7.810;2023-04-30T04:43:18;15.93;;;12.77;;
1699;SDS011;847;48.058;7.810;2023-04-30T04:45:45;17.03;;;14.07;;
1699;SDS011;847;48.058;7.810;2023-04-30T04:48:12;16.30;;;13.50;;
1699;SDS011;847;48.058;7.810;2023-04-30T04:50:39;15.70;;;13.23;;
1699;SDS011;847;48.058;7.810;2023-04-30T04:53:08;15.50;;;12.83;;
1699;SDS011;847;48.058;7.810;2023-04-30T04:55:34;16.37;;;12.70;;
1699;SDS011;847;48.058;7.810;2023-04-30T04:58:01;18.30;;;12.73;;
1699;SDS011;847;48.058;7.810;2023-04-30T05:00:28;16.07;;;12.13;;
1699;SDS011;847;48.058;7.810;2023-04-30T05:02:55;17.63;;;12.00;;
1699;SDS011;847;48.058;7.810;2023-04-30T05:05:21;14.57;;;12.40;;
1699;SDS011;847;48.058;7.810;2023-04-30T05:07:48;16.87;;;12.20;;
1699;SDS011;847;48.058;7.810;2023-04-30T05:10:17;16.30;;;12.87;;
1699;SDS011;847;48.058;7.810;2023-04-30T05:12:44;12.70;;;11.17;;
1699;SDS011;847;48.058;7.810;2023-04-30T05:15:11;15.53;;;12.00;;
1699;SDS011;847;48.058;7.810;2023-04-30T05:17:38;13.23;;;11.00;;
1699;SDS011;847;48.058;7.810;2023-04-30T05:20:05;13.70;;;11.80;;
1699;SDS011;847;48.058;7.810;2023-04-30T05:22:32;12.53;;;9.93;;
1699;SDS011;847;48.058;7.810;2023-04-30T05:24:59;13.50;;;10.73;;
1699;SDS011;847;48.058;7.810;2023-04-30T05:27:27;13.00;;;10.37;;
1699;SDS011;847;48.058;7.810;2023-04-30T05:29:54;12.60;;;9.93;;
1699;SDS011;847;48.058;7.810;2023-04-30T05:32:21;12.30;;;11.00;;
1699;SDS011;847;48.058;7.810;2023-04-30T05:34:47;12.20;;;10.57;;
1699;SDS011;847;48.058;7.810;2023-04-30T05:37:14;13.00;;;9.83;;
1699;SDS011;847;48.058;7.810;2023-04-30T05:39:43;13.47;;;9.57;;
1699;SDS011;847;48.058;7.810;2023-04-30T05:42:10;12.53;;;9.70;;
1699;SDS011;847;48.058;7.810;2023-04-30T05:44:38;10.57;;;8.77;;
1699;SDS011;847;48.058;7.810;2023-04-30T05:47:05;12.93;;;9.30;;
1699;SDS011;847;48.058;7.810;2023-04-30T05:49:32;10.90;;;9.43;;
1699;SDS011;847;48.058;7.810;2023-04-30T05:51:59;12.80;;;9.90;;
1699;SDS011;847;48.058;7.810;2023-04-30T05:54:26;11.23;;;9.17;;
1699;SDS011;847;48.058;7.810;2023-04-30T05:56:52;11.03;;;8.40;;
1699;SDS011;847;48.058;7.810;2023-04-30T05:59:19;9.30;;;8.30;;
1699;SDS011;847;48.058;7.810;2023-04-30T06:01:47;10.13;;;8.63;;
1699;SDS011;847;48.058;7.810;2023-04-30T06:04:14;12.10;;;8.27;;
1699;SDS011;847;48.058;7.810;2023-04-30T06:06:41;11.73;;;8.67;;
1699;SDS011;847;48.058;7.810;2023-04-30T06:09:08;10.77;;;9.03;;
1699;SDS011;847;48.058;7.810;2023-04-30T06:11:35;8.50;;;7.70;;
1699;SDS011;847;48.058;7.810;2023-04-30T06:14:02;9.90;;;8.57;;
1699;SDS011;847;48.058;7.810;2023-04-30T06:16:29;10.30;;;8.23;;
1699;SDS011;847;48.058;7.810;2023-04-30T06:18:57;9.30;;;8.30;;
1699;SDS011;847;48.058;7.810;2023-04-30T06:21:24;7.80;;;7.00;;
1699;SDS011;847;48.058;7.810;2023-04-30T06:23:51;8.93;;;7.80;;
1699;SDS011;847;48.058;7.810;2023-04-30T06:26:18;8.63;;;7.73;;
1699;SDS011;847;48.058;7.810;2023-04-30T06:28:45;8.50;;;7.30;;
1699;SDS011;847;48.058;7.810;2023-04-30T06:31:12;18.50;;;13.77;;
1699;SDS011;847;48.058;7.810;2023-04-30T06:33:39;10.70;;;9.27;;
1699;SDS011;847;48.058;7.810;2023-04-30T06:36:07;12.33;;;10.30;;
1699;SDS011;847;48.058;7.810;2023-04-30T06:38:34;19.07;;;16.27;;
1699;SDS011;847;48.058;7.810;2023-04-30T06:41:00;11.53;;;10.33;;
1699;SDS011;847;48.058;7.810;2023-04-30T06:43:27;9.93;;;8.70;;
1699;SDS011;847;48.058;7.810;2023-04-30T06:45:54;11.17;;;10.07;;
1699;SDS011;847;48.058;7.810;2023-04-30T06:48:21;8.77;;;7.87;;
1699;SDS011;847;48.058;7.810;2023-04-30T06:50:48;10.10;;;8.83;;
1699;SDS011;847;48.058;7.810;2023-04-30T06:53:16;12.73;;;11.43;;
1699;SDS011;847;48.058;7.810;2023-04-30T06:55:43;14.50;;;12.53;;
1699;SDS011;847;48.058;7.810;2023-04-30T06:58:10;9.53;;;8.00;;
1699;SDS011;847;48.058;7.810;2023-04-30T07:00:37;9.87;;;8.10;;
1699;SDS011;847;48.058;7.810;2023-04-30T07:03:04;7.90;;;6.97;;
1699;SDS011;847;48.058;7.810;2023-04-30T07:05:32;9.50;;;8.50;;
1699;SDS011;847;48.058;7.810;2023-04-30T07:07:59;9.03;;;8.13;;
1699;SDS011;847;48.058;7.810;2023-04-30T07:10:28;9.60;;;8.60;;
1699;SDS011;847;48.058;7.810;2023-04-30T07:12:55;6.20;;;5.60;;
1699;SDS011;847;48.058;7.810;2023-04-30T07:15:23;6.70;;;6.00;;
1699;SDS011;847;48.058;7.810;2023-04-30T07:17:50;5.70;;;5.10;;
1699;SDS011;847;48.058;7.810;2023-04-30T07:20:17;4.93;;;4.37;;
1699;SDS011;847;48.058;7.810;2023-04-30T07:22:44;5.67;;;5.10;;
1699;SDS011;847;48.058;7.810;2023-04-30T07:25:11;4.87;;;3.60;;
1699;SDS011;847;48.058;7.810;2023-04-30T07:27:39;5.20;;;4.70;;
1699;SDS011;847;48.058;7.810;2023-04-30T07:30:06;4.00;;;3.33;;
1699;SDS011;847;48.058;7.810;2023-04-30T07:32:34;4.00;;;3.33;;
1699;SDS011;847;48.058;7.810;2023-04-30T07:35:02;3.30;;;3.00;;
1699;SDS011;847;48.058;7.810;2023-04-30T07:37:30;3.97;;;3.23;;
1699;SDS011;847;48.058;7.810;2023-04-30T07:39:57;2.80;;;2.57;;
1699;SDS011;847;48.058;7.810;2023-04-30T07:42:24;2.43;;;2.23;;
1699;SDS011;847;48.058;7.810;2023-04-30T07:44:52;3.33;;;2.70;;
1699;SDS011;847;48.058;7.810;2023-04-30T07:47:19;2.73;;;2.53;;
1699;SDS011;847;48.058;7.810;2023-04-30T07:49:46;3.30;;;3.00;;
1699;SDS011;847;48.058;7.810;2023-04-30T07:52:14;3.40;;;2.30;;
1699;SDS011;847;48.058;7.810;2023-04-30T07:54:41;2.57;;;2.37;;
1699;SDS011;847;48.058;7.810;2023-04-30T07:57:08;3.80;;;2.93;;
1699;SDS011;847;48.058;7.810;2023-04-30T07:59:35;2.60;;;2.40;;
1699;SDS011;847;48.058;7.810;2023-04-30T08:02:03;2.77;;;2.57;;
1699;SDS011;847;48.058;7.810;2023-04-30T08:04:30;3.20;;;2.40;;
1699;SDS011;847;48.058;7.810;2023-04-30T08:06:57;3.30;;;2.00;;
1699;SDS011;847;48.058;7.810;2023-04-30T08:09:23;2.43;;;2.23;;
1699;SDS011;847;48.058;7.810;2023-04-30T08:11:50;10.53;;;2.43;;
1699;SDS011;847;48.058;7.810;2023-04-30T08:14:17;2.53;;;2.30;;
1699;SDS011;847;48.058;7.810;2023-04-30T08:16:44;2.10;;;2.00;;
1699;SDS011;847;48.058;7.810;2023-04-30T08:19:12;2.23;;;2.00;;
1699;SDS011;847;48.058;7.810;2023-04-30T08:21:38;2.13;;;1.97;;
1699;SDS011;847;48.058;7.810;2023-04-30T08:24:05;2.57;;;1.97;;
1699;SDS011;847;48.058;7.810;2023-04-30T08:26:32;3.10;;;2.03;;
1699;SDS011;847;48.058;7.810;2023-04-30T08:28:59;2.40;;;2.20;;
1699;SDS011;847;48.058;7.810;2023-04-30T08:31:26;2.47;;;2.27;;
1699;SDS011;847;48.058;7.810;2023-04-30T08:33:53;6.13;;;2.23;;
1699;SDS011;847;48.058;7.810;2023-04-30T08:36:21;2.77;;;2.53;;
1699;SDS011;847;48.058;7.810;2023-04-30T08:38:47;2.73;;;2.53;;
1699;SDS011;847;48.058;7.810;2023-04-30T08:41:14;2.63;;;2.43;;
1699;SDS011;847;48.058;7.810;2023-04-30T08:43:41;2.33;;;2.13;;
1699;SDS011;847;48.058;7.810;2023-04-30T08:46:09;2.20;;;2.00;;
1699;SDS011;847;48.058;7.810;2023-04-30T08:48:38;2.30;;;2.10;;
1699;SDS011;847;48.058;7.810;2023-04-30T08:51:06;2.60;;;2.40;;
1699;SDS011;847;48.058;7.810;2023-04-30T08:53:35;2.60;;;2.20;;
1699;SDS011;847;48.058;7.810;2023-04-30T08:56:03;2.23;;;2.03;;
1699;SDS011;847;48.058;7.810;2023-04-30T08:58:30;2.23;;;2.03;;
1699;SDS011;847;48.058;7.810;2023-04-30T09:00:57;2.43;;;2.17;;
1699;SDS011;847;48.058;7.810;2023-04-30T09:03:24;2.63;;;2.43;;
1699;SDS011;847;48.058;7.810;2023-04-30T09:05:52;2.10;;;1.90;;
1699;SDS011;847;48.058;7.810;2023-04-30T09:11:18;2.77;;;1.90;;
1699;SDS011;847;48.058;7.810;2023-04-30T09:13:48;2.40;;;2.20;;
1699;SDS011;847;48.058;7.810;2023-04-30T09:16:17;1.93;;;1.83;;
1699;SDS011;847;48.058;7.810;2023-04-30T09:18:44;2.40;;;2.20;;
1699;SDS011;847;48.058;7.810;2023-04-30T09:21:11;2.13;;;2.03;;
1699;SDS011;847;48.058;7.810;2023-04-30T09:23:46;2.43;;;2.23;;
1699;SDS011;847;48.058;7.810;2023-04-30T09:26:20;2.83;;;2.30;;
1699;SDS011;847;48.058;7.810;2023-04-30T09:28:53;2.33;;;2.13;;
1699;SDS011;847;48.058;7.810;2023-04-30T09:31:21;2.30;;;2.10;;
1699;SDS011;847;48.058;7.810;2023-04-30T09:33:48;2.50;;;2.20;;
1699;SDS011;847;48.058;7.810;2023-04-30T09:36:15;2.50;;;2.30;;
1699;SDS011;847;48.058;7.810;2023-04-30T09:38:42;2.83;;;2.23;;
1699;SDS011;847;48.058;7.810;2023-04-30T09:41:20;2.00;;;1.90;;
1699;SDS011;847;48.058;7.810;2023-04-30T09:43:48;2.17;;;1.97;;
1699;SDS011;847;48.058;7.810;2023-04-30T09:46:17;2.10;;;2.00;;
1699;SDS011;847;48.058;7.810;2023-04-30T09:48:44;2.23;;;2.03;;
1699;SDS011;847;48.058;7.810;2023-04-30T09:51:11;3.00;;;2.40;;
1699;SDS011;847;48.058;7.810;2023-04-30T09:53:38;2.57;;;2.37;;
1699;SDS011;847;48.058;7.810;2023-04-30T09:56:07;2.43;;;2.23;;
1699;SDS011;847;48.058;7.810;2023-04-30T09:58:38;2.33;;;2.03;;
1699;SDS011;847;48.058;7.810;2023-04-30T10:01:09;2.13;;;1.80;;
1699;SDS011;847;48.058;7.810;2023-04-30T10:03:36;4.23;;;2.60;;
1699;SDS011;847;48.058;7.810;2023-04-30T10:06:06;2.30;;;2.10;;
1699;SDS011;847;48.058;7.810;2023-04-30T10:08:35;2.50;;;2.30;;
1699;SDS011;847;48.058;7.810;2023-04-30T10:11:06;1.77;;;1.67;;
1699;SDS011;847;48.058;7.810;2023-04-30T10:13:34;2.93;;;2.00;;
1699;SDS011;847;48.058;7.810;2023-04-30T10:16:10;2.30;;;1.90;;
1699;SDS011;847;48.058;7.810;2023-04-30T10:18:44;2.00;;;1.90;;
1699;SDS011;847;48.058;7.810;2023-04-30T10:21:15;2.03;;;1.90;;
1699;SDS011;847;48.058;7.810;2023-04-30T10:23:45;2.30;;;2.10;;
1699;SDS011;847;48.058;7.810;2023-04-30T10:26:13;2.23;;;2.00;;
1699;SDS011;847;48.058;7.810;2023-04-30T10:28:43;2.10;;;2.00;;
1699;SDS011;847;48.058;7.810;2023-04-30T10:31:10;2.60;;;2.40;;
1699;SDS011;847;48.058;7.810;2023-04-30T10:33:41;2.70;;;2.50;;
1699;SDS011;847;48.058;7.810;2023-04-30T10:36:16;2.50;;;2.30;;
1699;SDS011;847;48.058;7.810;2023-04-30T10:38:49;2.80;;;2.50;;
1699;SDS011;847;48.058;7.810;2023-04-30T10:41:18;2.80;;;2.30;;
1699;SDS011;847;48.058;7.810;2023-04-30T10:43:47;2.80;;;2.60;;
1699;SDS011;847;48.058;7.810;2023-04-30T10:46:20;3.47;;;2.40;;
1699;SDS011;847;48.058;7.810;2023-04-30T10:48:47;3.77;;;2.30;;
1699;SDS011;847;48.058;7.810;2023-04-30T10:51:14;3.77;;;2.40;;
1699;SDS011;847;48.058;7.810;2023-04-30T10:53:42;2.30;;;2.10;;
1699;SDS011;847;48.058;7.810;2023-04-30T10:56:09;2.13;;;1.97;;
1699;SDS011;847;48.058;7.810;2023-04-30T10:58:37;2.73;;;2.53;;
1699;SDS011;847;48.058;7.810;2023-04-30T11:01:06;2.50;;;2.30;;
1699;SDS011;847;48.058;7.810;2023-04-30T11:03:35;2.60;;;2.10;;
1699;SDS011;847;48.058;7.810;2023-04-30T11:06:09;2.00;;;1.90;;
1699;SDS011;847;48.058;7.810;2023-04-30T11:08:38;5.23;;;1.97;;
1699;SDS011;847;48.058;7.810;2023-04-30T11:11:07;2.07;;;1.97;;
1699;SDS011;847;48.058;7.810;2023-04-30T11:13:37;2.23;;;2.03;;
1699;SDS011;847;48.058;7.810;2023-04-30T11:16:07;2.10;;;2.00;;
1699;SDS011;847;48.058;7.810;2023-04-30T11:18:39;3.33;;;2.10;;
1699;SDS011;847;48.058;7.810;2023-04-30T11:21:07;2.60;;;2.40;;
1699;SDS011;847;48.058;7.810;2023-04-30T11:23:34;2.40;;;2.20;;
1699;SDS011;847;48.058;7.810;2023-04-30T11:26:01;2.60;;;2.40;;
1699;SDS011;847;48.058;7.810;2023-04-30T11:28:30;2.40;;;2.20;;
1699;SDS011;847;48.058;7.810;2023-04-30T11:30:59;3.07;;;2.87;;
1699;SDS011;847;48.058;7.810;2023-04-30T11:33:27;2.67;;;2.47;;
1699;SDS011;847;48.058;7.810;2023-04-30T11:35:55;3.13;;;2.37;;
1699;SDS011;847;48.058;7.810;2023-04-30T11:38:25;2.60;;;2.40;;
1699;SDS011;847;48.058;7.810;2023-04-30T11:40:53;2.77;;;2.50;;
1699;SDS011;847;48.058;7.810;2023-04-30T11:43:20;2.97;;;2.67;;
1699;SDS011;847;48.058;7.810;2023-04-30T11:46:03;2.50;;;2.30;;
1699;SDS011;847;48.058;7.810;2023-04-30T11:48:34;4.07;;;2.37;;
1699;SDS011;847;48.058;7.810;2023-04-30T11:51:02;2.73;;;2.53;;
1699;SDS011;847;48.058;7.810;2023-04-30T11:53:30;3.83;;;2.53;;
1699;SDS011;847;48.058;7.810;2023-04-30T11:56:03;2.60;;;2.40;;
1699;SDS011;847;48.058;7.810;2023-04-30T11:58:33;2.60;;;2.40;;
1699;SDS011;847;48.058;7.810;2023-04-30T12:01:02;2.60;;;2.40;;
1699;SDS011;847;48.058;7.810;2023-04-30T12:03:29;2.70;;;2.50;;
1699;SDS011;847;48.058;7.810;2023-04-30T12:05:58;3.10;;;2.70;;
1699;SDS011;847;48.058;7.810;2023-04-30T12:08:26;2.67;;;2.47;;
1699;SDS011;847;48.058;7.810;2023-04-30T12:10:54;2.30;;;2.10;;
1699;SDS011;847;48.058;7.810;2023-04-30T12:13:20;2.50;;;2.30;;
1699;SDS011;847;48.058;7.810;2023-04-30T12:15:56;2.30;;;2.10;;
1699;SDS011;847;48.058;7.810;2023-04-30T12:18:24;2.50;;;2.30;;
1699;SDS011;847;48.058;7.810;2023-04-30T12:20:51;2.40;;;2.20;;
1699;SDS011;847;48.058;7.810;2023-04-30T12:23:19;7.33;;;2.73;;
1699;SDS011;847;48.058;7.810;2023-04-30T12:25:46;2.30;;;2.13;;
1699;SDS011;847;48.058;7.810;2023-04-30T12:28:13;2.60;;;2.40;;
1699;SDS011;847;48.058;7.810;2023-04-30T12:30:40;2.50;;;2.20;;
1699;SDS011;847;48.058;7.810;2023-04-30T12:33:08;2.30;;;2.10;;
1699;SDS011;847;48.058;7.810;2023-04-30T12:35:35;2.13;;;1.93;;
1699;SDS011;847;48.058;7.810;2023-04-30T12:38:03;3.17;;;2.60;;
1699;SDS011;847;48.058;7.810;2023-04-30T12:40:32;2.97;;;2.47;;
1699;SDS011;847;48.058;7.810;2023-04-30T12:43:01;2.70;;;2.50;;
1699;SDS011;847;48.058;7.810;2023-04-30T12:45:43;3.83;;;2.07;;
1699;SDS011;847;48.058;7.810;2023-04-30T12:48:11;3.10;;;2.90;;
1699;SDS011;847;48.058;7.810;2023-04-30T12:50:39;3.93;;;2.70;;
1699;SDS011;847;48.058;7.810;2023-04-30T12:53:06;3.20;;;2.90;;
1699;SDS011;847;48.058;7.810;2023-04-30T12:55:34;2.77;;;2.57;;
1699;SDS011;847;48.058;7.810;2023-04-30T12:58:06;2.63;;;2.43;;
1699;SDS011;847;48.058;7.810;2023-04-30T13:00:41;2.30;;;2.10;;
1699;SDS011;847;48.058;7.810;2023-04-30T13:03:09;3.00;;;2.80;;
1699;SDS011;847;48.058;7.810;2023-04-30T13:05:35;2.03;;;1.93;;
1699;SDS011;847;48.058;7.810;2023-04-30T13:08:02;2.50;;;2.10;;
1699;SDS011;847;48.058;7.810;2023-04-30T13:10:30;3.00;;;2.80;;
1699;SDS011;847;48.058;7.810;2023-04-30T13:12:58;2.50;;;2.30;;
1699;SDS011;847;48.058;7.810;2023-04-30T13:15:25;2.80;;;2.60;;
1699;SDS011;847;48.058;7.810;2023-04-30T13:17:52;2.70;;;2.50;;
1699;SDS011;847;48.058;7.810;2023-04-30T13:20:22;2.70;;;2.47;;
1699;SDS011;847;48.058;7.810;2023-04-30T13:22:52;2.87;;;2.50;;
1699;SDS011;847;48.058;7.810;2023-04-30T13:25:19;2.50;;;2.30;;
1699;SDS011;847;48.058;7.810;2023-04-30T13:27:46;2.40;;;2.20;;
1699;SDS011;847;48.058;7.810;2023-04-30T13:30:14;2.80;;;2.60;;
1699;SDS011;847;48.058;7.810;2023-04-30T13:32:41;2.93;;;2.30;;
1699;SDS011;847;48.058;7.810;2023-04-30T13:35:09;2.43;;;2.17;;
1699;SDS011;847;48.058;7.810;2023-04-30T13:37:36;6.90;;;3.10;;
1699;SDS011;847;48.058;7.810;2023-04-30T13:40:03;2.53;;;2.33;;
1699;SDS011;847;48.058;7.810;2023-04-30T13:42:31;2.97;;;2.77;;
1699;SDS011;847;48.058;7.810;2023-04-30T13:44:58;3.00;;;2.50;;
1699;SDS011;847;48.058;7.810;2023-04-30T13:47:26;2.23;;;2.13;;
1699;SDS011;847;48.058;7.810;2023-04-30T13:49:53;2.80;;;2.33;;
1699;SDS011;847;48.058;7.810;2023-04-30T13:52:20;2.73;;;2.53;;
1699;SDS011;847;48.058;7.810;2023-04-30T13:54:47;2.63;;;2.30;;
1699;SDS011;847;48.058;7.810;2023-04-30T13:57:13;2.90;;;2.70;;
1699;SDS011;847;48.058;7.810;2023-04-30T13:59:40;2.67;;;2.47;;
1699;SDS011;847;48.058;7.810;2023-04-30T14:02:08;2.60;;;2.40;;
1699;SDS011;847;48.058;7.810;2023-04-30T14:04:36;3.40;;;2.60;;
1699;SDS011;847;48.058;7.810;2023-04-30T14:07:03;2.90;;;2.30;;
1699;SDS011;847;48.058;7.810;2023-04-30T14:09:30;2.67;;;2.47;;
1699;SDS011;847;48.058;7.810;2023-04-30T14:11:56;2.60;;;2.40;;
1699;SDS011;847;48.058;7.810;2023-04-30T14:14:23;3.03;;;2.80;;
1699;SDS011;847;48.058;7.810;2023-04-30T14:16:50;2.80;;;2.60;;
1699;SDS011;847;48.058;7.810;2023-04-30T14:19:17;2.30;;;2.20;;
1699;SDS011;847;48.058;7.810;2023-04-30T14:21:45;3.13;;;2.30;;
1699;SDS011;847;48.058;7.810;2023-04-30T14:24:12;2.80;;;2.60;;
1699;SDS011;847;48.058;7.810;2023-04-30T14:26:40;3.63;;;2.83;;
1699;SDS011;847;48.058;7.810;2023-04-30T14:29:07;3.07;;;2.77;;
1699;SDS011;847;48.058;7.810;2023-04-30T14:31:34;4.17;;;3.07;;
1699;SDS011;847;48.058;7.810;2023-04-30T14:34:00;2.53;;;2.30;;
1699;SDS011;847;48.058;7.810;2023-04-30T14:36:27;2.70;;;2.50;;
1699;SDS011;847;48.058;7.810;2023-04-30T14:38:58;2.63;;;2.43;;
1699;SDS011;847;48.058;7.810;2023-04-30T14:41:27;2.93;;;2.27;;
1699;SDS011;847;48.058;7.810;2023-04-30T14:43:54;2.77;;;2.57;;
1699;SDS011;847;48.058;7.810;2023-04-30T14:46:21;2.80;;;2.60;;
1699;SDS011;847;48.058;7.810;2023-04-30T14:48:47;2.87;;;2.60;;
1699;SDS011;847;48.058;7.810;2023-04-30T14:51:14;2.60;;;2.40;;
1699;SDS011;847;48.058;7.810;2023-04-30T14:53:41;2.90;;;2.70;;
1699;SDS011;847;48.058;7.810;2023-04-30T14:56:09;4.53;;;2.27;;
1699;SDS011;847;48.058;7.810;2023-04-30T14:58:36;2.47;;;2.27;;
1699;SDS011;847;48.058;7.810;2023-04-30T15:01:03;7.43;;;2.60;;
1699;SDS011;847;48.058;7.810;2023-04-30T15:03:30;2.90;;;2.37;;
1699;SDS011;847;48.058;7.810;2023-04-30T15:05:57;2.53;;;2.33;;
1699;SDS011;847;48.058;7.810;2023-04-30T15:08:24;2.70;;;2.50;;
1699;SDS011;847;48.058;7.810;2023-04-30T15:10:51;2.60;;;2.40;;
1699;SDS011;847;48.058;7.810;2023-04-30T15:13:20;4.40;;;2.67;;
1699;SDS011;847;48.058;7.810;2023-04-30T15:15:47;2.60;;;2.23;;
1699;SDS011;847;48.058;7.810;2023-04-30T15:18:14;2.77;;;2.57;;
1699;SDS011;847;48.058;7.810;2023-04-30T15:20:41;2.53;;;2.33;;
1699;SDS011;847;48.058;7.810;2023-04-30T15:23:07;2.90;;;2.50;;
1699;SDS011;847;48.058;7.810;2023-04-30T15:25:34;2.83;;;2.63;;
1699;SDS011;847;48.058;7.810;2023-04-30T15:28:01;3.20;;;3.00;;
1699;SDS011;847;48.058;7.810;2023-04-30T15:30:30;2.87;;;2.53;;
1699;SDS011;847;48.058;7.810;2023-04-30T15:32:56;2.33;;;2.23;;